sensor_id;sensor_type;location;lat;lon;timestamp;temperature;humidity
2579;DHT22;1299;48.282;14.398;2024-03-23T00:53:48;11.40;99.90
2579;DHT22;1299;48.282;14.398;2024-03-23T00:56:15;11.30;99.90
2579;DHT22;1299;48.282;14.398;2024-03-23T00:58:41;11.40;99.90
2579;DHT22;1299;48.282;14.398;2024-03-23T01:01:08;11.30;99.90
2579;DHT22;1299;48.282;14.398;2024-03-23T01:03:34;11.40;99.90
2579;DHT22;1299;48.282;14.398;2024-03-23T01:06:02;11.30;99.90
2579;DHT22;1299;48.282;14.398;2024-03-23T01:08:29;11.30;99.90
2579;DHT22;1299;48.282;14.398;2024-03-23T01:10:58;11.30;99.90
2579;DHT22;1299;48.282;14.398;2024-03-23T01:13:25;11.30;99.90
2579;DHT22;1299;48.282;14.398;2024-03-23T01:15:53;11.30;99.90
2579;DHT22;1299;48.282;14.398;2024-03-23T01:18:19;11.30;99.90
2579;DHT22;1299;48.282;14.398;2024-03-23T01:20:47;11.30;99.90
2579;DHT22;1299;48.282;14.398;2024-03-23T01:23:13;11.30;99.90
2579;DHT22;1299;48.282;14.398;2024-03-23T01:25:40;11.30;99.90
2579;DHT22;1299;48.282;14.398;2024-03-23T01:28:08;11.20;99.90
2579;DHT22;1299;48.282;14.398;2024-03-23T01:30:35;11.20;99.90
2579;DHT22;1299;48.282;14.398;2024-03-23T01:33:02;11.20;99.90
2579;DHT22;1299;48.282;14.398;2024-03-23T01:35:29;11.30;99.90
2579;DHT22;1299;48.282;14.398;2024-03-23T01:37:55;11.30;99.90
2579;DHT22;1299;48.282;14.398;2024-03-23T01:40:22;11.30;99.90
2579;DHT22;1299;48.282;14.398;2024-03-23T01:42:58;11.20;99.90
2579;DHT22;1299;48.282;14.398;2024-03-23T01:45:26;11.20;99.90
2579;DHT22;1299;48.282;14.398;2024-03-23T01:47:53;11.20;99.90
2579;DHT22;1299;48.282;14.398;2024-03-23T01:50:20;11.10;99.90
2579;DHT22;1299;48.282;14.398;2024-03-23T01:52:47;11.10;99.90
2579;DHT22;1299;48.282;14.398;2024-03-23T01:55:14;11.10;99.90
2579;DHT22;1299;48.282;14.398;2024-03-23T01:57:41;11.10;99.90
2579;DHT22;1299;48.282;14.398;2024-03-23T02:00:08;11.00;99.90
2579;DHT22;1299;48.282;14.398;2024-03-23T02:02:36;11.00;99.90
2579;DHT22;1299;48.282;14.398;2024-03-23T02:05:04;11.00;99.90
2579;DHT22;1299;48.282;14.398;2024-03-23T02:07:30;10.90;99.90
2579;DHT22;1299;48.282;14.398;2024-03-23T02:09:57;11.00;99.90
2579;DHT22;1299;48.282;14.398;2024-03-23T02:12:23;10.90;99.90
2579;DHT22;1299;48.282;14.398;2024-03-23T02:14:50;10.90;99.90
2579;DHT22;1299;48.282;14.398;2024-03-23T02:17:16;10.90;99.90
2579;DHT22;1299;48.282;14.398;2024-03-23T02:19:45;10.90;99.90
2579;DHT22;1299;48.282;14.398;2024-03-23T02:22:12;10.90;99.90
2579;DHT22;1299;48.282;14.398;2024-03-23T02:24:40;10.90;99.90
2579;DHT22;1299;48.282;14.398;2024-03-23T02:27:06;10.90;99.90
2579;DHT22;1299;48.282;14.398;2024-03-23T02:29:34;10.90;99.90
2579;DHT22;1299;48.282;14.398;2024-03-23T02:32:01;10.90;99.90
2579;DHT22;1299;48.282;14.398;2024-03-23T02:34:28;10.80;99.90
2579;DHT22;1299;48.282;14.398;2024-03-23T02:36:54;10.80;99.90
2579;DHT22;1299;48.282;14.398;2024-03-23T02:39:21;10.80;99.90
2579;DHT22;1299;48.282;14.398;2024-03-23T02:41:48;10.80;99.90
2579;DHT22;1299;48.282;14.398;2024-03-23T02:44:15;10.80;99.90
2579;DHT22;1299;48.282;14.398;2024-03-23T02:46:41;10.80;99.90
2579;DHT22;1299;48.282;14.398;2024-03-23T02:49:08;10.70;99.90
2579;DHT22;1299;48.282;14.398;2024-03-23T02:51:34;10.70;99.90
2579;DHT22;1299;48.282;14.398;2024-03-23T02:54:02;10.70;99.90
2579;DHT22;1299;48.282;14.398;2024-03-23T02:56:28;10.80;99.90
2579;DHT22;1299;48.282;14.398;2024-03-23T02:58:56;10.80;99.90
2579;DHT22;1299;48.282;14.398;2024-03-23T03:01:22;10.80;99.90
2579;DHT22;1299;48.282;14.398;2024-03-23T03:03:49;10.80;99.90
2579;DHT22;1299;48.282;14.398;2024-03-23T03:06:23;10.70;99.90
2579;DHT22;1299;48.282;14.398;2024-03-23T03:08:50;10.60;99.90
2579;DHT22;1299;48.282;14.398;2024-03-23T03:11:16;10.50;99.90
2579;DHT22;1299;48.282;14.398;2024-03-23T03:13:43;10.60;99.90
2579;DHT22;1299;48.282;14.398;2024-03-23T03:16:11;10.50;99.90
2579;DHT22;1299;48.282;14.398;2024-03-23T03:18:38;10.60;99.90
2579;DHT22;1299;48.282;14.398;2024-03-23T03:21:05;10.60;99.90
2579;DHT22;1299;48.282;14.398;2024-03-23T03:23:36;10.60;99.90
2579;DHT22;1299;48.282;14.398;2024-03-23T03:26:03;10.50;99.90
2579;DHT22;1299;48.282;14.398;2024-03-23T03:28:31;10.40;99.90
2579;DHT22;1299;48.282;14.398;2024-03-23T03:30:58;10.30;99.90
2579;DHT22;1299;48.282;14.398;2024-03-23T03:33:27;10.20;99.90
2579;DHT22;1299;48.282;14.398;2024-03-23T03:35:53;10.10;99.90
2579;DHT22;1299;48.282;14.398;2024-03-23T03:38:20;10.00;99.90
2579;DHT22;1299;48.282;14.398;2024-03-23T03:40:47;10.00;99.90
2579;DHT22;1299;48.282;14.398;2024-03-23T03:43:14;9.90;99.90
2579;DHT22;1299;48.282;14.398;2024-03-23T03:45:40;9.70;99.90
2579;DHT22;1299;48.282;14.398;2024-03-23T03:48:07;9.70;99.90
2579;DHT22;1299;48.282;14.398;2024-03-23T03:50:35;9.70;99.90
2579;DHT22;1299;48.282;14.398;2024-03-23T03:53:02;9.70;99.90
2579;DHT22;1299;48.282;14.398;2024-03-23T03:55:28;9.60;99.90
2579;DHT22;1299;48.282;14.398;2024-03-23T03:57:55;9.50;99.90
2579;DHT22;1299;48.282;14.398;2024-03-23T04:00:21;9.40;99.90
2579;DHT22;1299;48.282;14.398;2024-03-23T04:02:48;9.30;99.90
2579;DHT22;1299;48.282;14.398;2024-03-23T04:05:14;9.30;99.90
2579;DHT22;1299;48.282;14.398;2024-03-23T04:07:43;9.30;99.90
2579;DHT22;1299;48.282;14.398;2024-03-23T04:10:09;9.30;99.90
2579;DHT22;1299;48.282;14.398;2024-03-23T04:12:37;9.30;99.90
2579;DHT22;1299;48.282;14.398;2024-03-23T04:15:04;9.30;99.90
2579;DHT22;1299;48.282;14.398;2024-03-23T04:17:31;9.30;99.90
2579;DHT22;1299;48.282;14.398;2024-03-23T04:19:58;9.30;99.90
2579;DHT22;1299;48.282;14.398;2024-03-23T04:22:26;9.30;99.90
2579;DHT22;1299;48.282;14.398;2024-03-23T04:24:54;9.20;99.90
2579;DHT22;1299;48.282;14.398;2024-03-23T04:27:21;9.20;99.90
2579;DHT22;1299;48.282;14.398;2024-03-23T04:29:48;9.10;99.90
2579;DHT22;1299;48.282;14.398;2024-03-23T04:32:15;9.00;99.90
2579;DHT22;1299;48.282;14.398;2024-03-23T04:34:43;9.10;99.90
2579;DHT22;1299;48.282;14.398;2024-03-23T04:37:10;9.10;99.90
2579;DHT22;1299;48.282;14.398;2024-03-23T04:39:38;9.10;99.90
2579;DHT22;1299;48.282;14.398;2024-03-23T04:42:06;9.00;99.90
2579;DHT22;1299;48.282;14.398;2024-03-23T04:44:33;8.80;99.90
2579;DHT22;1299;48.282;14.398;2024-03-23T04:47:01;8.90;99.90
2579;DHT22;1299;48.282;14.398;2024-03-23T04:49:28;9.00;99.90
2579;DHT22;1299;48.282;14.398;2024-03-23T04:51:55;9.10;99.90
2579;DHT22;1299;48.282;14.398;2024-03-23T04:54:22;9.00;99.90
2579;DHT22;1299;48.282;14.398;2024-03-23T04:56:49;9.00;99.90
2579;DHT22;1299;48.282;14.398;2024-03-23T04:59:18;9.00;99.90
2579;DHT22;1299;48.282;14.398;2024-03-23T05:01:44;8.90;99.90
2579;DHT22;1299;48.282;14.398;2024-03-23T05:04:11;8.80;99.90
2579;DHT22;1299;48.282;14.398;2024-03-23T05:06:38;8.70;99.90
2579;DHT22;1299;48.282;14.398;2024-03-23T05:09:05;8.70;99.90
2579;DHT22;1299;48.282;14.398;2024-03-23T05:11:32;8.70;99.90
2579;DHT22;1299;48.282;14.398;2024-03-23T05:14:00;8.60;99.90
2579;DHT22;1299;48.282;14.398;2024-03-23T05:16:30;8.60;99.90
2579;DHT22;1299;48.282;14.398;2024-03-23T05:18:56;8.60;99.90
2579;DHT22;1299;48.282;14.398;2024-03-23T05:21:23;8.60;99.90
2579;DHT22;1299;48.282;14.398;2024-03-23T05:23:49;8.60;99.90
2579;DHT22;1299;48.282;14.398;2024-03-23T05:26:17;8.60;99.90
2579;DHT22;1299;48.282;14.398;2024-03-23T05:28:43;8.60;99.90
2579;DHT22;1299;48.282;14.398;2024-03-23T05:31:10;8.50;99.90
2579;DHT22;1299;48.282;14.398;2024-03-23T05:33:38;8.50;99.90
2579;DHT22;1299;48.282;14.398;2024-03-23T05:36:05;8.50;99.90
2579;DHT22;1299;48.282;14.398;2024-03-23T05:38:31;8.50;99.90
2579;DHT22;1299;48.282;14.398;2024-03-23T05:40:59;8.60;99.90
2579;DHT22;1299;48.282;14.398;2024-03-23T05:43:26;8.70;99.90
2579;DHT22;1299;48.282;14.398;2024-03-23T05:45:54;8.80;99.90
2579;DHT22;1299;48.282;14.398;2024-03-23T05:48:20;9.00;99.90
2579;DHT22;1299;48.282;14.398;2024-03-23T05:50:49;9.50;99.90
2579;DHT22;1299;48.282;14.398;2024-03-23T05:53:16;10.30;99.90
2579;DHT22;1299;48.282;14.398;2024-03-23T05:55:43;11.30;99.90
2579;DHT22;1299;48.282;14.398;2024-03-23T05:58:09;11.80;99.90
2579;DHT22;1299;48.282;14.398;2024-03-23T06:00:37;12.40;99.90
2579;DHT22;1299;48.282;14.398;2024-03-23T06:03:03;12.70;99.90
2579;DHT22;1299;48.282;14.398;2024-03-23T06:05:30;12.90;99.90
2579;DHT22;1299;48.282;14.398;2024-03-23T06:07:57;14.00;99.90
2579;DHT22;1299;48.282;14.398;2024-03-23T06:10:25;14.90;99.90
2579;DHT22;1299;48.282;14.398;2024-03-23T06:12:51;15.50;99.90
2579;DHT22;1299;48.282;14.398;2024-03-23T06:15:19;16.20;99.90
2579;DHT22;1299;48.282;14.398;2024-03-23T06:17:45;16.50;99.90
2579;DHT22;1299;48.282;14.398;2024-03-23T06:20:12;17.30;99.90
2579;DHT22;1299;48.282;14.398;2024-03-23T06:22:39;18.00;99.90
2579;DHT22;1299;48.282;14.398;2024-03-23T06:25:08;18.10;99.90
2579;DHT22;1299;48.282;14.398;2024-03-23T06:27:34;18.50;99.90
2579;DHT22;1299;48.282;14.398;2024-03-23T06:30:01;19.50;99.70
2579;DHT22;1299;48.282;14.398;2024-03-23T06:32:27;20.70;97.10
2579;DHT22;1299;48.282;14.398;2024-03-23T06:34:55;21.80;95.20
2579;DHT22;1299;48.282;14.398;2024-03-23T06:37:21;22.20;93.80
2579;DHT22;1299;48.282;14.398;2024-03-23T06:39:48;22.10;93.30
2579;DHT22;1299;48.282;14.398;2024-03-23T06:42:15;21.90;93.20
2579;DHT22;1299;48.282;14.398;2024-03-23T06:44:44;22.00;93.20
2579;DHT22;1299;48.282;14.398;2024-03-23T06:47:10;22.30;92.80
2579;DHT22;1299;48.282;14.398;2024-03-23T06:49:37;23.20;92.10
2579;DHT22;1299;48.282;14.398;2024-03-23T06:52:03;23.90;91.40
2579;DHT22;1299;48.282;14.398;2024-03-23T06:54:30;24.30;91.00
2579;DHT22;1299;48.282;14.398;2024-03-23T06:59:25;24.00;90.00
2579;DHT22;1299;48.282;14.398;2024-03-23T07:01:51;24.40;88.90
2579;DHT22;1299;48.282;14.398;2024-03-23T07:04:18;24.60;89.00
2579;DHT22;1299;48.282;14.398;2024-03-23T07:06:45;24.80;87.70
2579;DHT22;1299;48.282;14.398;2024-03-23T07:09:12;23.70;86.50
2579;DHT22;1299;48.282;14.398;2024-03-23T07:11:38;22.30;87.20
2579;DHT22;1299;48.282;14.398;2024-03-23T07:14:05;21.50;89.90
2579;DHT22;1299;48.282;14.398;2024-03-23T07:16:32;21.10;90.00
2579;DHT22;1299;48.282;14.398;2024-03-23T07:18:59;21.30;90.90
2579;DHT22;1299;48.282;14.398;2024-03-23T07:21:25;21.70;91.90
2579;DHT22;1299;48.282;14.398;2024-03-23T07:23:53;21.70;92.50
2579;DHT22;1299;48.282;14.398;2024-03-23T07:26:19;21.40;92.50
2579;DHT22;1299;48.282;14.398;2024-03-23T07:28:46;20.20;92.40
2579;DHT22;1299;48.282;14.398;2024-03-23T07:31:14;20.90;94.10
2579;DHT22;1299;48.282;14.398;2024-03-23T07:33:45;20.80;93.90
2579;DHT22;1299;48.282;14.398;2024-03-23T07:36:12;20.50;94.40
2579;DHT22;1299;48.282;14.398;2024-03-23T07:38:40;20.50;94.80
2579;DHT22;1299;48.282;14.398;2024-03-23T07:41:08;19.80;94.50
2579;DHT22;1299;48.282;14.398;2024-03-23T07:43:35;19.20;95.00
2579;DHT22;1299;48.282;14.398;2024-03-23T07:46:03;19.20;95.00
2579;DHT22;1299;48.282;14.398;2024-03-23T07:48:29;19.00;95.40
2579;DHT22;1299;48.282;14.398;2024-03-23T07:51:02;18.60;95.60
2579;DHT22;1299;48.282;14.398;2024-03-23T07:53:28;18.90;95.60
2579;DHT22;1299;48.282;14.398;2024-03-23T07:55:56;19.30;95.30
2579;DHT22;1299;48.282;14.398;2024-03-23T07:58:23;19.70;95.20
2579;DHT22;1299;48.282;14.398;2024-03-23T08:00:50;20.10;95.00
2579;DHT22;1299;48.282;14.398;2024-03-23T08:03:16;20.30;94.50
2579;DHT22;1299;48.282;14.398;2024-03-23T08:05:44;20.30;94.60
2579;DHT22;1299;48.282;14.398;2024-03-23T08:08:11;19.90;94.20
2579;DHT22;1299;48.282;14.398;2024-03-23T08:10:47;19.70;94.90
2579;DHT22;1299;48.282;14.398;2024-03-23T08:13:13;19.50;94.30
2579;DHT22;1299;48.282;14.398;2024-03-23T08:15:40;18.60;94.40
2579;DHT22;1299;48.282;14.398;2024-03-23T08:18:07;18.40;95.20
2579;DHT22;1299;48.282;14.398;2024-03-23T08:20:34;17.90;95.20
2579;DHT22;1299;48.282;14.398;2024-03-23T08:23:00;16.90;95.90
2579;DHT22;1299;48.282;14.398;2024-03-23T08:25:30;17.70;98.80
2579;DHT22;1299;48.282;14.398;2024-03-23T08:27:57;18.00;98.10
2579;DHT22;1299;48.282;14.398;2024-03-23T08:30:24;17.30;98.50
2579;DHT22;1299;48.282;14.398;2024-03-23T08:32:50;17.60;97.90
2579;DHT22;1299;48.282;14.398;2024-03-23T08:35:17;17.60;98.90
2579;DHT22;1299;48.282;14.398;2024-03-23T08:37:43;18.10;97.40
2579;DHT22;1299;48.282;14.398;2024-03-23T08:40:11;18.80;96.20
2579;DHT22;1299;48.282;14.398;2024-03-23T08:42:38;18.80;96.50
2579;DHT22;1299;48.282;14.398;2024-03-23T08:45:06;18.10;95.30
2579;DHT22;1299;48.282;14.398;2024-03-23T08:47:34;17.80;94.20
2579;DHT22;1299;48.282;14.398;2024-03-23T08:50:02;18.90;94.60
2579;DHT22;1299;48.282;14.398;2024-03-23T08:52:28;18.70;94.50
2579;DHT22;1299;48.282;14.398;2024-03-23T08:54:56;17.80;95.30
2579;DHT22;1299;48.282;14.398;2024-03-23T08:57:22;17.60;96.10
2579;DHT22;1299;48.282;14.398;2024-03-23T08:59:51;18.00;96.80
2579;DHT22;1299;48.282;14.398;2024-03-23T09:02:17;18.40;97.50
2579;DHT22;1299;48.282;14.398;2024-03-23T09:04:44;18.40;96.90
2579;DHT22;1299;48.282;14.398;2024-03-23T09:07:10;18.80;96.70
2579;DHT22;1299;48.282;14.398;2024-03-23T09:09:38;18.60;95.90
2579;DHT22;1299;48.282;14.398;2024-03-23T09:12:05;19.40;94.90
2579;DHT22;1299;48.282;14.398;2024-03-23T09:14:33;19.70;95.00
2579;DHT22;1299;48.282;14.398;2024-03-23T09:17:00;20.00;95.10
2579;DHT22;1299;48.282;14.398;2024-03-23T09:19:28;20.30;94.80
2579;DHT22;1299;48.282;14.398;2024-03-23T09:21:54;20.60;94.80
2579;DHT22;1299;48.282;14.398;2024-03-23T09:24:22;20.80;94.40
2579;DHT22;1299;48.282;14.398;2024-03-23T09:26:48;20.10;93.00
2579;DHT22;1299;48.282;14.398;2024-03-23T09:29:16;20.50;93.90
2579;DHT22;1299;48.282;14.398;2024-03-23T09:31:42;21.20;93.50
2579;DHT22;1299;48.282;14.398;2024-03-23T09:34:10;21.60;93.00
2579;DHT22;1299;48.282;14.398;2024-03-23T09:36:37;21.50;92.00
2579;DHT22;1299;48.282;14.398;2024-03-23T09:39:04;21.50;91.10
2579;DHT22;1299;48.282;14.398;2024-03-23T09:41:31;21.20;91.10
2579;DHT22;1299;48.282;14.398;2024-03-23T09:43:59;21.30;90.60
2579;DHT22;1299;48.282;14.398;2024-03-23T09:46:25;21.40;90.90
2579;DHT22;1299;48.282;14.398;2024-03-23T09:48:52;21.40;90.50
2579;DHT22;1299;48.282;14.398;2024-03-23T09:51:19;21.30;90.30
2579;DHT22;1299;48.282;14.398;2024-03-23T09:53:46;20.80;90.70
2579;DHT22;1299;48.282;14.398;2024-03-23T09:56:12;21.30;91.10
2579;DHT22;1299;48.282;14.398;2024-03-23T09:58:39;21.30;89.20
2579;DHT22;1299;48.282;14.398;2024-03-23T10:01:07;21.60;89.50
2579;DHT22;1299;48.282;14.398;2024-03-23T10:03:42;21.90;88.70
2579;DHT22;1299;48.282;14.398;2024-03-23T10:06:08;21.40;88.70
2579;DHT22;1299;48.282;14.398;2024-03-23T10:08:37;21.40;89.10
2579;DHT22;1299;48.282;14.398;2024-03-23T10:11:13;21.40;89.40
2579;DHT22;1299;48.282;14.398;2024-03-23T10:13:42;21.60;90.50
2579;DHT22;1299;48.282;14.398;2024-03-23T10:16:09;21.90;90.20
2579;DHT22;1299;48.282;14.398;2024-03-23T10:18:39;22.00;89.80
2579;DHT22;1299;48.282;14.398;2024-03-23T10:21:09;21.20;90.00
2579;DHT22;1299;48.282;14.398;2024-03-23T10:23:38;20.70;90.00
2579;DHT22;1299;48.282;14.398;2024-03-23T10:26:16;20.60;90.50
2579;DHT22;1299;48.282;14.398;2024-03-23T10:28:55;20.40;90.00
2579;DHT22;1299;48.282;14.398;2024-03-23T10:31:23;19.90;90.60
2579;DHT22;1299;48.282;14.398;2024-03-23T10:33:51;19.80;91.20
2579;DHT22;1299;48.282;14.398;2024-03-23T10:36:20;19.40;91.40
2579;DHT22;1299;48.282;14.398;2024-03-23T10:38:51;19.30;91.90
2579;DHT22;1299;48.282;14.398;2024-03-23T10:41:17;18.40;92.90
2579;DHT22;1299;48.282;14.398;2024-03-23T10:43:46;17.70;92.70
2579;DHT22;1299;48.282;14.398;2024-03-23T10:46:13;16.40;92.60
2579;DHT22;1299;48.282;14.398;2024-03-23T10:48:40;16.20;93.80
2579;DHT22;1299;48.282;14.398;2024-03-23T10:51:08;16.10;94.50
2579;DHT22;1299;48.282;14.398;2024-03-23T10:53:35;16.50;95.70
2579;DHT22;1299;48.282;14.398;2024-03-23T10:56:05;16.50;95.20
2579;DHT22;1299;48.282;14.398;2024-03-23T10:58:36;16.70;95.80
2579;DHT22;1299;48.282;14.398;2024-03-23T11:01:03;16.60;95.50
2579;DHT22;1299;48.282;14.398;2024-03-23T11:03:32;16.80;95.90
2579;DHT22;1299;48.282;14.398;2024-03-23T11:05:59;17.00;94.70
2579;DHT22;1299;48.282;14.398;2024-03-23T11:08:34;16.60;93.40
2579;DHT22;1299;48.282;14.398;2024-03-23T11:11:16;16.30;92.10
2579;DHT22;1299;48.282;14.398;2024-03-23T11:13:44;16.50;92.20
2579;DHT22;1299;48.282;14.398;2024-03-23T11:16:14;16.80;92.80
2579;DHT22;1299;48.282;14.398;2024-03-23T11:18:41;16.90;92.00
2579;DHT22;1299;48.282;14.398;2024-03-23T11:21:08;16.30;91.30
2579;DHT22;1299;48.282;14.398;2024-03-23T11:23:35;16.10;91.30
2579;DHT22;1299;48.282;14.398;2024-03-23T11:26:01;16.30;92.20
2579;DHT22;1299;48.282;14.398;2024-03-23T11:28:30;16.20;91.40
2579;DHT22;1299;48.282;14.398;2024-03-23T11:30:56;15.90;91.50
2579;DHT22;1299;48.282;14.398;2024-03-23T11:33:23;15.80;91.70
2579;DHT22;1299;48.282;14.398;2024-03-23T11:35:50;15.50;91.60
2579;DHT22;1299;48.282;14.398;2024-03-23T11:38:18;15.30;92.00
2579;DHT22;1299;48.282;14.398;2024-03-23T11:40:45;15.20;92.10
2579;DHT22;1299;48.282;14.398;2024-03-23T11:43:14;15.10;92.40
2579;DHT22;1299;48.282;14.398;2024-03-23T11:45:43;14.80;92.60
2579;DHT22;1299;48.282;14.398;2024-03-23T11:48:11;14.70;93.60
2579;DHT22;1299;48.282;14.398;2024-03-23T11:50:39;14.70;93.80
2579;DHT22;1299;48.282;14.398;2024-03-23T11:53:14;14.60;93.60
2579;DHT22;1299;48.282;14.398;2024-03-23T11:55:48;14.50;94.50
2579;DHT22;1299;48.282;14.398;2024-03-23T11:58:16;14.10;95.70
2579;DHT22;1299;48.282;14.398;2024-03-23T12:00:49;13.80;96.20
2579;DHT22;1299;48.282;14.398;2024-03-23T12:03:18;13.80;99.90
2579;DHT22;1299;48.282;14.398;2024-03-23T12:05:48;13.70;99.90
2579;DHT22;1299;48.282;14.398;2024-03-23T12:08:21;14.00;99.90
2579;DHT22;1299;48.282;14.398;2024-03-23T12:10:49;13.70;99.90
2579;DHT22;1299;48.282;14.398;2024-03-23T12:13:18;13.40;99.90
2579;DHT22;1299;48.282;14.398;2024-03-23T12:15:47;13.50;99.90
2579;DHT22;1299;48.282;14.398;2024-03-23T12:18:14;13.50;99.90
2579;DHT22;1299;48.282;14.398;2024-03-23T12:20:41;13.30;99.90
2579;DHT22;1299;48.282;14.398;2024-03-23T12:23:09;13.10;99.90
2579;DHT22;1299;48.282;14.398;2024-03-23T12:25:37;13.00;99.90
2579;DHT22;1299;48.282;14.398;2024-03-23T12:28:05;12.90;99.90
2579;DHT22;1299;48.282;14.398;2024-03-23T12:30:35;12.90;99.90
2579;DHT22;1299;48.282;14.398;2024-03-23T12:33:04;12.90;99.90
2579;DHT22;1299;48.282;14.398;2024-03-23T12:35:30;12.90;99.90
2579;DHT22;1299;48.282;14.398;2024-03-23T12:37:57;12.90;99.90
2579;DHT22;1299;48.282;14.398;2024-03-23T12:40:23;12.90;99.90
2579;DHT22;1299;48.282;14.398;2024-03-23T12:42:51;12.90;99.90
2579;DHT22;1299;48.282;14.398;2024-03-23T12:45:17;13.10;99.90
2579;DHT22;1299;48.282;14.398;2024-03-23T12:47:44;13.00;99.90
2579;DHT22;1299;48.282;14.398;2024-03-23T12:50:11;13.00;99.90
2579;DHT22;1299;48.282;14.398;2024-03-23T12:52:38;12.90;99.90
2579;DHT22;1299;48.282;14.398;2024-03-23T12:55:05;12.90;99.90
2579;DHT22;1299;48.282;14.398;2024-03-23T12:57:32;12.80;99.90
2579;DHT22;1299;48.282;14.398;2024-03-23T12:59:58;12.60;99.90
2579;DHT22;1299;48.282;14.398;2024-03-23T13:02:26;12.60;99.90
2579;DHT22;1299;48.282;14.398;2024-03-23T13:04:53;12.40;99.90
2579;DHT22;1299;48.282;14.398;2024-03-23T13:07:22;12.40;99.90
2579;DHT22;1299;48.282;14.398;2024-03-23T13:09:50;12.10;99.90
2579;DHT22;1299;48.282;14.398;2024-03-23T13:12:18;12.20;99.90
2579;DHT22;1299;48.282;14.398;2024-03-23T13:14:44;12.00;99.90
2579;DHT22;1299;48.282;14.398;2024-03-23T13:17:11;11.80;99.90
2579;DHT22;1299;48.282;14.398;2024-03-23T13:19:37;11.80;99.90
2579;DHT22;1299;48.282;14.398;2024-03-23T13:22:05;11.70;99.90
2579;DHT22;1299;48.282;14.398;2024-03-23T13:24:32;11.80;99.90
2579;DHT22;1299;48.282;14.398;2024-03-23T13:26:59;11.90;99.90
2579;DHT22;1299;48.282;14.398;2024-03-23T13:29:26;11.90;99.90
2579;DHT22;1299;48.282;14.398;2024-03-23T13:31:53;12.00;99.90
2579;DHT22;1299;48.282;14.398;2024-03-23T13:34:19;11.80;99.90
2579;DHT22;1299;48.282;14.398;2024-03-23T13:36:47;11.90;99.90
2579;DHT22;1299;48.282;14.398;2024-03-23T13:39:13;11.90;99.90
2579;DHT22;1299;48.282;14.398;2024-03-23T13:41:43;11.80;99.90
2579;DHT22;1299;48.282;14.398;2024-03-23T13:44:10;11.80;99.90
2579;DHT22;1299;48.282;14.398;2024-03-23T13:46:37;11.80;99.90
2579;DHT22;1299;48.282;14.398;2024-03-23T13:49:04;11.50;99.90
2579;DHT22;1299;48.282;14.398;2024-03-23T13:51:32;11.60;99.90
2579;DHT22;1299;48.282;14.398;2024-03-23T13:53:58;11.70;99.90
2579;DHT22;1299;48.282;14.398;2024-03-23T13:56:27;11.60;99.90
2579;DHT22;1299;48.282;14.398;2024-03-23T13:58:55;11.50;99.90
2579;DHT22;1299;48.282;14.398;2024-03-23T14:01:23;11.40;99.90
2579;DHT22;1299;48.282;14.398;2024-03-23T14:03:50;11.50;99.90
2579;DHT22;1299;48.282;14.398;2024-03-23T14:06:17;11.60;99.90
2579;DHT22;1299;48.282;14.398;2024-03-23T14:08:43;11.40;99.90
2579;DHT22;1299;48.282;14.398;2024-03-23T14:11:10;11.40;99.90
2579;DHT22;1299;48.282;14.398;2024-03-23T14:13:36;11.30;99.90
2579;DHT22;1299;48.282;14.398;2024-03-23T14:16:05;11.10;99.90
2579;DHT22;1299;48.282;14.398;2024-03-23T14:18:31;10.80;99.90
2579;DHT22;1299;48.282;14.398;2024-03-23T14:20:59;10.40;99.90
2579;DHT22;1299;48.282;14.398;2024-03-23T14:23:26;10.40;99.90
2579;DHT22;1299;48.282;14.398;2024-03-23T14:25:54;10.30;99.90
2579;DHT22;1299;48.282;14.398;2024-03-23T14:28:21;10.60;99.90
2579;DHT22;1299;48.282;14.398;2024-03-23T14:30:48;10.70;99.90
2579;DHT22;1299;48.282;14.398;2024-03-23T14:33:16;10.60;99.90
2579;DHT22;1299;48.282;14.398;2024-03-23T14:35:51;10.50;99.90
2579;DHT22;1299;48.282;14.398;2024-03-23T14:38:17;10.30;99.90
2579;DHT22;1299;48.282;14.398;2024-03-23T14:40:44;10.50;99.90
2579;DHT22;1299;48.282;14.398;2024-03-23T14:43:11;10.50;99.90
2579;DHT22;1299;48.282;14.398;2024-03-23T14:45:38;10.50;99.90
2579;DHT22;1299;48.282;14.398;2024-03-23T14:48:17;10.40;99.90
2579;DHT22;1299;48.282;14.398;2024-03-23T14:50:44;10.30;99.90
2579;DHT22;1299;48.282;14.398;2024-03-23T14:53:10;10.40;99.90
2579;DHT22;1299;48.282;14.398;2024-03-23T14:55:37;10.30;99.90
2579;DHT22;1299;48.282;14.398;2024-03-23T14:58:03;10.20;99.90
2579;DHT22;1299;48.282;14.398;2024-03-23T15:00:30;10.30;99.90
2579;DHT22;1299;48.282;14.398;2024-03-23T15:02:57;10.30;99.90
2579;DHT22;1299;48.282;14.398;2024-03-23T15:05:25;10.40;99.90
2579;DHT22;1299;48.282;14.398;2024-03-23T15:07:51;10.40;99.90
2579;DHT22;1299;48.282;14.398;2024-03-23T15:10:18;10.40;99.90
2579;DHT22;1299;48.282;14.398;2024-03-23T15:12:45;10.20;99.90
2579;DHT22;1299;48.282;14.398;2024-03-23T15:15:12;9.90;99.90
2579;DHT22;1299;48.282;14.398;2024-03-23T15:17:38;9.90;99.90
2579;DHT22;1299;48.282;14.398;2024-03-23T15:20:07;10.00;99.90
2579;DHT22;1299;48.282;14.398;2024-03-23T15:22:35;9.90;99.90
2579;DHT22;1299;48.282;14.398;2024-03-23T15:25:02;9.80;99.90
2579;DHT22;1299;48.282;14.398;2024-03-23T15:27:28;9.90;99.90
2579;DHT22;1299;48.282;14.398;2024-03-23T15:29:56;9.90;99.90
2579;DHT22;1299;48.282;14.398;2024-03-23T15:32:23;9.90;99.90
2579;DHT22;1299;48.282;14.398;2024-03-23T15:34:50;9.90;99.90
2579;DHT22;1299;48.282;14.398;2024-03-23T15:37:17;10.10;99.90
2579;DHT22;1299;48.282;14.398;2024-03-23T15:39:46;10.10;99.90
2579;DHT22;1299;48.282;14.398;2024-03-23T15:42:13;10.00;99.90
2579;DHT22;1299;48.282;14.398;2024-03-23T15:44:40;9.90;99.90
2579;DHT22;1299;48.282;14.398;2024-03-23T15:47:07;10.10;99.90
2579;DHT22;1299;48.282;14.398;2024-03-23T15:49:34;10.20;99.90
2579;DHT22;1299;48.282;14.398;2024-03-23T15:52:00;10.20;99.90
2579;DHT22;1299;48.282;14.398;2024-03-23T15:54:27;10.30;99.90
2579;DHT22;1299;48.282;14.398;2024-03-23T15:56:54;10.30;99.90
2579;DHT22;1299;48.282;14.398;2024-03-23T15:59:21;10.30;99.90
2579;DHT22;1299;48.282;14.398;2024-03-23T16:01:48;9.90;99.90
2579;DHT22;1299;48.282;14.398;2024-03-23T16:04:15;9.90;99.90
2579;DHT22;1299;48.282;14.398;2024-03-23T16:06:41;9.90;99.90
2579;DHT22;1299;48.282;14.398;2024-03-23T16:09:09;9.90;99.90
2579;DHT22;1299;48.282;14.398;2024-03-23T16:11:36;10.00;99.90
2579;DHT22;1299;48.282;14.398;2024-03-23T16:14:05;10.10;99.90
2579;DHT22;1299;48.282;14.398;2024-03-23T16:16:31;10.10;99.90
2579;DHT22;1299;48.282;14.398;2024-03-23T16:18:58;10.20;99.90
2579;DHT22;1299;48.282;14.398;2024-03-23T16:21:24;9.90;99.90
2579;DHT22;1299;48.282;14.398;2024-03-23T16:23:51;9.70;99.90
2579;DHT22;1299;48.282;14.398;2024-03-23T16:26:17;9.80;99.90
2579;DHT22;1299;48.282;14.398;2024-03-23T16:28:44;9.90;99.90
2579;DHT22;1299;48.282;14.398;2024-03-23T16:31:12;9.90;99.90
2579;DHT22;1299;48.282;14.398;2024-03-23T16:33:40;9.80;99.90
2579;DHT22;1299;48.282;14.398;2024-03-23T16:36:07;9.80;99.90
2579;DHT22;1299;48.282;14.398;2024-03-23T16:38:35;9.80;99.90
2579;DHT22;1299;48.282;14.398;2024-03-23T16:41:03;9.90;99.90
2579;DHT22;1299;48.282;14.398;2024-03-23T16:43:30;9.80;99.90
2579;DHT22;1299;48.282;14.398;2024-03-23T16:45:58;9.70;99.90